sensor_id;sensor_type;location;lat;lon;timestamp;pressure;altitude;pressure_sealevel;temperature;humidity
22743;BME280;11538;48.884;8.696;2022-12-04T00:00:32;98456.13;;;2.64;100.00
22743;BME280;11538;48.884;8.696;2022-12-04T00:02:59;98454.31;;;2.70;100.00
22743;BME280;11538;48.884;8.696;2022-12-04T00:05:26;98478.97;;;2.72;100.00
22743;BME280;11538;48.884;8.696;2022-12-04T00:07:57;98469.88;;;2.73;100.00
22743;BME280;11538;48.884;8.696;2022-12-04T00:10:41;98457.88;;;2.75;100.00
22743;BME280;11538;48.884;8.696;2022-12-04T00:13:08;98466.97;;;2.74;100.00
22743;BME280;11538;48.884;8.696;2022-12-04T00:15:40;98453.56;;;2.74;100.00
22743;BME280;11538;48.884;8.696;2022-12-04T00:18:06;98465.03;;;2.70;100.00
22743;BME280;11538;48.884;8.696;2022-12-04T00:20:33;98477.09;;;2.67;100.00
22743;BME280;11538;48.884;8.696;2022-12-04T00:23:01;98463.16;;;2.65;100.00
22743;BME280;11538;48.884;8.696;2022-12-04T00:25:29;98445.75;;;2.68;100.00
22743;BME280;11538;48.884;8.696;2022-12-04T00:27:56;98449.53;;;2.72;100.00
22743;BME280;11538;48.884;8.696;2022-12-04T00:30:23;98454.03;;;2.66;100.00
22743;BME280;11538;48.884;8.696;2022-12-04T00:32:49;98450.78;;;2.64;100.00
22743;BME280;11538;48.884;8.696;2022-12-04T00:35:17;98440.38;;;2.68;100.00
22743;BME280;11538;48.884;8.696;2022-12-04T00:37:44;98440.69;;;2.71;100.00
22743;BME280;11538;48.884;8.696;2022-12-04T00:40:11;98442.81;;;2.69;100.00
22743;BME280;11538;48.884;8.696;2022-12-04T00:42:38;98441.22;;;2.68;100.00
22743;BME280;11538;48.884;8.696;2022-12-04T00:45:05;98445.00;;;2.72;100.00
22743;BME280;11538;48.884;8.696;2022-12-04T00:47:32;98451.41;;;2.71;100.00
22743;BME280;11538;48.884;8.696;2022-12-04T00:49:58;98453.03;;;2.72;100.00
22743;BME280;11538;48.884;8.696;2022-12-04T00:52:25;98447.34;;;2.69;100.00
22743;BME280;11538;48.884;8.696;2022-12-04T00:54:53;98450.03;;;2.69;100.00
22743;BME280;11538;48.884;8.696;2022-12-04T00:57:20;98446.06;;;2.71;100.00
22743;BME280;11538;48.884;8.696;2022-12-04T00:59:47;98445.22;;;2.71;100.00
22743;BME280;11538;48.884;8.696;2022-12-04T01:02:14;98442.31;;;2.72;100.00
22743;BME280;11538;48.884;8.696;2022-12-04T01:04:41;98452.75;;;2.74;100.00
22743;BME280;11538;48.884;8.696;2022-12-04T01:07:07;98449.56;;;2.77;100.00
22743;BME280;11538;48.884;8.696;2022-12-04T01:09:34;98444.75;;;2.79;100.00
22743;BME280;11538;48.884;8.696;2022-12-04T01:12:01;98443.97;;;2.78;100.00
22743;BME280;11538;48.884;8.696;2022-12-04T01:14:28;98440.72;;;2.76;100.00
22743;BME280;11538;48.884;8.696;2022-12-04T01:16:55;98449.84;;;2.75;100.00
22743;BME280;11538;48.884;8.696;2022-12-04T01:19:22;98448.25;;;2.80;100.00
22743;BME280;11538;48.884;8.696;2022-12-04T01:21:49;98447.69;;;2.77;100.00
22743;BME280;11538;48.884;8.696;2022-12-04T01:24:16;98438.56;;;2.73;100.00
22743;BME280;11538;48.884;8.696;2022-12-04T01:26:43;98446.09;;;2.76;100.00
22743;BME280;11538;48.884;8.696;2022-12-04T01:29:09;98446.88;;;2.77;100.00
22743;BME280;11538;48.884;8.696;2022-12-04T01:31:36;98438.28;;;2.75;100.00
22743;BME280;11538;48.884;8.696;2022-12-04T01:34:03;98439.63;;;2.72;100.00
22743;BME280;11538;48.884;8.696;2022-12-04T01:36:30;98447.16;;;2.75;100.00
22743;BME280;11538;48.884;8.696;2022-12-04T01:38:57;98449.03;;;2.80;100.00
22743;BME280;11538;48.884;8.696;2022-12-04T01:41:27;98446.69;;;2.84;100.00
22743;BME280;11538;48.884;8.696;2022-12-04T01:46:54;98447.13;;;2.70;100.00
22743;BME280;11538;48.884;8.696;2022-12-04T01:52:08;98451.41;;;2.71;100.00
22743;BME280;11538;48.884;8.696;2022-12-04T01:54:40;98445.53;;;2.74;100.00
22743;BME280;11538;48.884;8.696;2022-12-04T01:57:16;98437.22;;;2.76;100.00
22743;BME280;11538;48.884;8.696;2022-12-04T01:59:56;98445.81;;;2.78;100.00
22743;BME280;11538;48.884;8.696;2022-12-04T02:02:46;98442.91;;;2.80;100.00
22743;BME280;11538;48.884;8.696;2022-12-04T02:05:15;98443.69;;;2.80;100.00
22743;BME280;11538;48.884;8.696;2022-12-04T02:07:44;98440.97;;;2.75;100.00
22743;BME280;11538;48.884;8.696;2022-12-04T02:10:12;98439.88;;;2.71;100.00
22743;BME280;11538;48.884;8.696;2022-12-04T02:12:46;98442.59;;;2.76;100.00
22743;BME280;11538;48.884;8.696;2022-12-04T02:15:22;98452.50;;;2.75;100.00
22743;BME280;11538;48.884;8.696;2022-12-04T02:18:09;98453.31;;;2.76;100.00
22743;BME280;11538;48.884;8.696;2022-12-04T02:21:04;98457.88;;;2.75;100.00
22743;BME280;11538;48.884;8.696;2022-12-04T02:26:32;98447.16;;;2.75;100.00
22743;BME280;11538;48.884;8.696;2022-12-04T02:31:40;98430.25;;;2.75;100.00
22743;BME280;11538;48.884;8.696;2022-12-04T02:34:19;98426.78;;;2.74;100.00
22743;BME280;11538;48.884;8.696;2022-12-04T02:36:54;98425.41;;;2.72;100.00
22743;BME280;11538;48.884;8.696;2022-12-04T02:39:38;98413.91;;;2.71;100.00
22743;BME280;11538;48.884;8.696;2022-12-04T02:42:13;98429.16;;;2.71;100.00
22743;BME280;11538;48.884;8.696;2022-12-04T02:44:52;98424.63;;;2.71;100.00
22743;BME280;11538;48.884;8.696;2022-12-04T02:47:23;98419.22;;;2.66;100.00
22743;BME280;11538;48.884;8.696;2022-12-04T02:49:55;98420.88;;;2.72;100.00
22743;BME280;11538;48.884;8.696;2022-12-04T02:52:34;98440.19;;;2.74;100.00
22743;BME280;11538;48.884;8.696;2022-12-04T02:55:06;98429.97;;;2.71;100.00
22743;BME280;11538;48.884;8.696;2022-12-04T02:57:38;98425.13;;;2.68;100.00
22743;BME280;11538;48.884;8.696;2022-12-04T03:00:07;98423.00;;;2.70;100.00
22743;BME280;11538;48.884;8.696;2022-12-04T03:02:49;98421.94;;;2.71;100.00
22743;BME280;11538;48.884;8.696;2022-12-04T03:05:19;98417.69;;;2.75;100.00
22743;BME280;11538;48.884;8.696;2022-12-04T03:07:56;98420.09;;;2.77;100.00
22743;BME280;11538;48.884;8.696;2022-12-04T03:10:29;98416.63;;;2.76;100.00
22743;BME280;11538;48.884;8.696;2022-12-04T03:13:31;98423.03;;;2.75;100.00
22743;BME280;11538;48.884;8.696;2022-12-04T03:16:06;98407.72;;;2.71;100.00
22743;BME280;11538;48.884;8.696;2022-12-04T03:19:11;98406.97;;;2.75;100.00
22743;BME280;11538;48.884;8.696;2022-12-04T03:21:45;98406.47;;;2.78;100.00
22743;BME280;11538;48.884;8.696;2022-12-04T03:24:22;98400.56;;;2.76;100.00
22743;BME280;11538;48.884;8.696;2022-12-04T03:26:58;98399.50;;;2.77;100.00
22743;BME280;11538;48.884;8.696;2022-12-04T03:32:24;98391.47;;;2.77;100.00
22743;BME280;11538;48.884;8.696;2022-12-04T03:35:14;98392.25;;;2.78;100.00
22743;BME280;11538;48.884;8.696;2022-12-04T03:37:52;98390.88;;;2.70;100.00
22743;BME280;11538;48.884;8.696;2022-12-04T03:40:34;98394.34;;;2.71;100.00
22743;BME280;11538;48.884;8.696;2022-12-04T03:43:28;98386.31;;;2.71;100.00
22743;BME280;11538;48.884;8.696;2022-12-04T03:48:42;98387.69;;;2.73;100.00
22743;BME280;11538;48.884;8.696;2022-12-04T03:51:21;98383.13;;;2.74;100.00
22743;BME280;11538;48.884;8.696;2022-12-04T03:54:04;98385.00;;;2.73;100.00
22743;BME280;11538;48.884;8.696;2022-12-04T03:56:55;98379.66;;;2.73;100.00
22743;BME280;11538;48.884;8.696;2022-12-04T03:59:59;98387.13;;;2.71;100.00
22743;BME280;11538;48.884;8.696;2022-12-04T04:02:35;98389.28;;;2.74;100.00
22743;BME280;11538;48.884;8.696;2022-12-04T04:05:05;98386.63;;;2.74;100.00
22743;BME280;11538;48.884;8.696;2022-12-04T04:07:55;98386.03;;;2.67;100.00
22743;BME280;11538;48.884;8.696;2022-12-04T04:10:43;98386.84;;;2.73;100.00
22743;BME280;11538;48.884;8.696;2022-12-04T04:13:15;98396.50;;;2.74;100.00
22743;BME280;11538;48.884;8.696;2022-12-04T04:16:05;98398.44;;;2.78;100.00
22743;BME280;11538;48.884;8.696;2022-12-04T04:18:53;98405.09;;;2.76;100.00
22743;BME280;11538;48.884;8.696;2022-12-04T04:21:41;98406.16;;;2.75;100.00
22743;BME280;11538;48.884;8.696;2022-12-04T04:24:42;98399.50;;;2.77;100.00
22743;BME280;11538;48.884;8.696;2022-12-04T04:27:09;98397.88;;;2.76;100.00
22743;BME280;11538;48.884;8.696;2022-12-04T04:29:37;98399.69;;;2.71;100.00
22743;BME280;11538;48.884;8.696;2022-12-04T04:32:24;98398.91;;;2.70;100.00
22743;BME280;11538;48.884;8.696;2022-12-04T04:38:20;98404.34;;;2.81;100.00
22743;BME280;11538;48.884;8.696;2022-12-04T04:40:57;98413.44;;;2.80;100.00
22743;BME280;11538;48.884;8.696;2022-12-04T04:43:31;98417.69;;;2.75;100.00
22743;BME280;11538;48.884;8.696;2022-12-04T04:46:04;98418.75;;;2.74;100.00
22743;BME280;11538;48.884;8.696;2022-12-04T04:48:44;98415.00;;;2.75;100.00
22743;BME280;11538;48.884;8.696;2022-12-04T04:51:13;98408.31;;;2.78;100.00
22743;BME280;11538;48.884;8.696;2022-12-04T04:53:47;98406.19;;;2.80;100.00
22743;BME280;11538;48.884;8.696;2022-12-04T04:56:16;98405.94;;;2.82;100.00
22743;BME280;11538;48.884;8.696;2022-12-04T04:58:43;98397.91;;;2.82;100.00
22743;BME280;11538;48.884;8.696;2022-12-04T05:01:17;98405.41;;;2.80;100.00
22743;BME280;11538;48.884;8.696;2022-12-04T05:03:45;98406.47;;;2.78;100.00
22743;BME280;11538;48.884;8.696;2022-12-04T05:06:12;98407.56;;;2.83;100.00
22743;BME280;11538;48.884;8.696;2022-12-04T05:08:39;98402.75;;;2.85;100.00
22743;BME280;11538;48.884;8.696;2022-12-04T05:11:11;98394.44;;;2.86;100.00
22743;BME280;11538;48.884;8.696;2022-12-04T05:13:39;98397.41;;;2.85;100.00
22743;BME280;11538;48.884;8.696;2022-12-04T05:16:09;98410.25;;;2.83;100.00
22743;BME280;11538;48.884;8.696;2022-12-04T05:18:37;98402.19;;;2.83;100.00
22743;BME280;11538;48.884;8.696;2022-12-04T05:21:06;98407.00;;;2.81;100.00
22743;BME280;11538;48.884;8.696;2022-12-04T05:23:33;98404.56;;;2.79;100.00
22743;BME280;11538;48.884;8.696;2022-12-04T05:26:01;98411.56;;;2.80;100.00
22743;BME280;11538;48.884;8.696;2022-12-04T05:28:29;98404.06;;;2.82;100.00
22743;BME280;11538;48.884;8.696;2022-12-04T05:30:57;98417.75;;;2.86;100.00
22743;BME280;11538;48.884;8.696;2022-12-04T05:33:24;98406.22;;;2.85;100.00
22743;BME280;11538;48.884;8.696;2022-12-04T05:35:56;98404.03;;;2.77;100.00
22743;BME280;11538;48.884;8.696;2022-12-04T05:38:24;98405.91;;;2.76;100.00
22743;BME280;11538;48.884;8.696;2022-12-04T05:40:51;98408.28;;;2.73;100.00
22743;BME280;11538;48.884;8.696;2022-12-04T05:43:18;98408.84;;;2.75;100.00
22743;BME280;11538;48.884;8.696;2022-12-04T05:45:45;98408.06;;;2.80;100.00
22743;BME280;11538;48.884;8.696;2022-12-04T05:48:12;98417.72;;;2.81;100.00
22743;BME280;11538;48.884;8.696;2022-12-04T05:50:38;98408.88;;;2.80;100.00
22743;BME280;11538;48.884;8.696;2022-12-04T05:53:05;98405.97;;;2.87;100.00
22743;BME280;11538;48.884;8.696;2022-12-04T05:55:32;98411.09;;;2.93;100.00
22743;BME280;11538;48.884;8.696;2022-12-04T05:57:59;98411.09;;;2.93;100.00
22743;BME280;11538;48.884;8.696;2022-12-04T06:00:26;98405.47;;;2.90;100.00
22743;BME280;11538;48.884;8.696;2022-12-04T06:02:53;98408.91;;;2.85;100.00
22743;BME280;11538;48.884;8.696;2022-12-04T06:05:20;98407.84;;;2.86;100.00
22743;BME280;11538;48.884;8.696;2022-12-04T06:07:47;98405.72;;;2.88;100.00
22743;BME280;11538;48.884;8.696;2022-12-04T06:10:13;98397.44;;;2.90;100.00
22743;BME280;11538;48.884;8.696;2022-12-04T06:12:40;98398.75;;;2.92;100.00
22743;BME280;11538;48.884;8.696;2022-12-04T06:15:07;98414.56;;;2.89;100.00
22743;BME280;11538;48.884;8.696;2022-12-04T06:17:34;98406.50;;;2.84;100.00
22743;BME280;11538;48.884;8.696;2022-12-04T06:20:01;98404.88;;;2.83;100.00
22743;BME280;11538;48.884;8.696;2022-12-04T06:22:35;98406.50;;;2.84;100.00
22743;BME280;11538;48.884;8.696;2022-12-04T06:25:02;98405.69;;;2.83;100.00
22743;BME280;11538;48.884;8.696;2022-12-04T06:27:29;98415.06;;;2.81;100.00
22743;BME280;11538;48.884;8.696;2022-12-04T06:29:56;98416.34;;;2.78;100.00
22743;BME280;11538;48.884;8.696;2022-12-04T06:32:23;98417.50;;;2.87;100.00
22743;BME280;11538;48.884;8.696;2022-12-04T06:34:51;98412.13;;;2.87;100.00
22743;BME280;11538;48.884;8.696;2022-12-04T06:37:20;98416.94;;;2.85;100.00
22743;BME280;11538;48.884;8.696;2022-12-04T06:39:47;98410.50;;;2.86;100.00
22743;BME280;11538;48.884;8.696;2022-12-04T06:42:14;98416.19;;;2.90;100.00
22743;BME280;11538;48.884;8.696;2022-12-04T06:44:41;98408.09;;;2.85;100.00
22743;BME280;11538;48.884;8.696;2022-12-04T06:47:08;98404.38;;;2.86;100.00
22743;BME280;11538;48.884;8.696;2022-12-04T06:49:35;98404.88;;;2.83;100.00
22743;BME280;11538;48.884;8.696;2022-12-04T06:52:02;98408.06;;;2.80;100.00
22743;BME280;11538;48.884;8.696;2022-12-04T06:54:29;98405.13;;;2.81;100.00
22743;BME280;11538;48.884;8.696;2022-12-04T06:56:56;98407.84;;;2.86;100.00
22743;BME280;11538;48.884;8.696;2022-12-04T06:59:23;98412.66;;;2.84;100.00
22743;BME280;11538;48.884;8.696;2022-12-04T07:01:50;98415.06;;;2.81;100.00
22743;BME280;11538;48.884;8.696;2022-12-04T07:04:16;98414.78;;;2.82;100.00
22743;BME280;11538;48.884;8.696;2022-12-04T07:06:43;98418.56;;;2.86;100.00
22743;BME280;11538;48.884;8.696;2022-12-04T07:09:14;98410.31;;;2.93;100.00
22743;BME280;11538;48.884;8.696;2022-12-04T07:11:41;98413.00;;;2.98;100.00
22743;BME280;11538;48.884;8.696;2022-12-04T07:14:10;98411.94;;;2.99;100.00
22743;BME280;11538;48.884;8.696;2022-12-04T07:16:37;98417.56;;;2.98;100.00
22743;BME280;11538;48.884;8.696;2022-12-04T07:19:09;98414.88;;;2.98;100.00
22743;BME280;11538;48.884;8.696;2022-12-04T07:21:36;98417.31;;;2.99;100.00
22743;BME280;11538;48.884;8.696;2022-12-04T07:24:03;98413.25;;;2.97;100.00
22743;BME280;11538;48.884;8.696;2022-12-04T07:26:30;98413.78;;;2.93;100.00
22743;BME280;11538;48.884;8.696;2022-12-04T07:28:58;98418.34;;;2.93;100.00
22743;BME280;11538;48.884;8.696;2022-12-04T07:31:26;98421.56;;;2.95;100.00
22743;BME280;11538;48.884;8.696;2022-12-04T07:33:53;98414.31;;;2.96;100.00
22743;BME280;11538;48.884;8.696;2022-12-04T07:36:22;98424.75;;;2.92;100.00
22743;BME280;11538;48.884;8.696;2022-12-04T07:38:49;98411.38;;;2.92;100.00
22743;BME280;11538;48.884;8.696;2022-12-04T07:41:17;98413.53;;;2.95;100.00
22743;BME280;11538;48.884;8.696;2022-12-04T07:43:44;98412.72;;;2.95;100.00
22743;BME280;11538;48.884;8.696;2022-12-04T07:46:17;98401.75;;;2.96;100.00
22743;BME280;11538;48.884;8.696;2022-12-04T07:48:44;98409.28;;;2.99;100.00
22743;BME280;11538;48.884;8.696;2022-12-04T07:51:14;98416.25;;;3.00;100.00
22743;BME280;11538;48.884;8.696;2022-12-04T07:53:41;98418.63;;;2.97;100.00
22743;BME280;11538;48.884;8.696;2022-12-04T07:56:10;98416.75;;;2.97;100.00
22743;BME280;11538;48.884;8.696;2022-12-04T07:58:37;98417.31;;;2.99;100.00
22743;BME280;11538;48.884;8.696;2022-12-04T08:01:09;98420.50;;;2.96;100.00
22743;BME280;11538;48.884;8.696;2022-12-04T08:03:37;98421.56;;;2.95;100.00
22743;BME280;11538;48.884;8.696;2022-12-04T08:06:12;98421.06;;;2.98;100.00
22743;BME280;11538;48.884;8.696;2022-12-04T08:08:39;98428.81;;;3.00;100.00
22743;BME280;11538;48.884;8.696;2022-12-04T08:11:08;98430.97;;;3.03;100.00
22743;BME280;11538;48.884;8.696;2022-12-04T08:13:36;98426.44;;;3.03;100.00
22743;BME280;11538;48.884;8.696;2022-12-04T08:16:04;98427.75;;;3.01;100.00
22743;BME280;11538;48.884;8.696;2022-12-04T08:18:32;98426.97;;;3.00;100.00
22743;BME280;11538;48.884;8.696;2022-12-04T08:21:09;98417.03;;;3.01;100.00
22743;BME280;11538;48.884;8.696;2022-12-04T08:23:38;98417.84;;;3.01;100.00
22743;BME280;11538;48.884;8.696;2022-12-04T08:26:05;98414.09;;;3.02;100.00
22743;BME280;11538;48.884;8.696;2022-12-04T08:28:33;98424.78;;;2.97;100.00
22743;BME280;11538;48.884;8.696;2022-12-04T08:31:09;98420.50;;;2.96;100.00
22743;BME280;11538;48.884;8.696;2022-12-04T08:33:37;98424.53;;;2.99;100.00
22743;BME280;11538;48.884;8.696;2022-12-04T08:36:05;98427.50;;;3.02;100.00
22743;BME280;11538;48.884;8.696;2022-12-04T08:38:33;98424.03;;;3.07;100.00
22743;BME280;11538;48.884;8.696;2022-12-04T08:41:03;98424.88;;;3.13;100.00
22743;BME280;11538;48.884;8.696;2022-12-04T08:43:30;98426.50;;;3.14;100.00
22743;BME280;11538;48.884;8.696;2022-12-04T08:46:02;98425.69;;;3.18;100.00
22743;BME280;11538;48.884;8.696;2022-12-04T08:48:30;98426.19;;;3.10;100.00
22743;BME280;11538;48.884;8.696;2022-12-04T08:50:57;98423.75;;;3.03;100.00
22743;BME280;11538;48.884;8.696;2022-12-04T08:53:25;98428.06;;;3.04;100.00
22743;BME280;11538;48.884;8.696;2022-12-04T08:55:52;98441.44;;;3.04;100.00
22743;BME280;11538;48.884;8.696;2022-12-04T08:58:19;98447.06;;;3.03;100.00
22743;BME280;11538;48.884;8.696;2022-12-04T09:00:46;98451.34;;;3.04;100.00
22743;BME280;11538;48.884;8.696;2022-12-04T09:03:16;98453.75;;;3.00;100.00
22743;BME280;11538;48.884;8.696;2022-12-04T09:05:43;98455.34;;;2.96;100.00
22743;BME280;11538;48.884;8.696;2022-12-04T09:08:15;98458.03;;;3.01;100.00
22743;BME280;11538;48.884;8.696;2022-12-04T09:10:42;98448.63;;;2.99;100.00
22743;BME280;11538;48.884;8.696;2022-12-04T09:13:09;98449.50;;;3.04;100.00
22743;BME280;11538;48.884;8.696;2022-12-04T09:15:39;98449.78;;;3.13;100.00
22743;BME280;11538;48.884;8.696;2022-12-04T09:18:07;98457.31;;;3.16;100.00
22743;BME280;11538;48.884;8.696;2022-12-04T09:20:34;98457.84;;;3.13;100.00
22743;BME280;11538;48.884;8.696;2022-12-04T09:23:02;98453.00;;;3.10;100.00
22743;BME280;11538;48.884;8.696;2022-12-04T09:25:34;98450.06;;;3.12;100.00
22743;BME280;11538;48.884;8.696;2022-12-04T09:28:02;98454.09;;;3.14;100.00
22743;BME280;11538;48.884;8.696;2022-12-04T09:30:29;98445.25;;;3.14;100.00
22743;BME280;11538;48.884;8.696;2022-12-04T09:32:56;98447.97;;;3.19;100.00
22743;BME280;11538;48.884;8.696;2022-12-04T09:35:23;98446.09;;;3.25;100.00
22743;BME280;11538;48.884;8.696;2022-12-04T09:37:50;98447.19;;;3.24;100.00
22743;BME280;11538;48.884;8.696;2022-12-04T09:40:29;98447.69;;;3.20;100.00
22743;BME280;11538;48.884;8.696;2022-12-04T09:45:48;98443.16;;;3.21;100.00
22743;BME280;11538;48.884;8.696;2022-12-04T09:48:18;98420.63;;;3.17;100.00
22743;BME280;11538;48.884;8.696;2022-12-04T09:50:48;98430.78;;;3.15;100.00
22743;BME280;11538;48.884;8.696;2022-12-04T09:53:18;98409.34;;;3.15;100.00
22743;BME280;11538;48.884;8.696;2022-12-04T09:58:28;98414.22;;;3.23;100.00
22743;BME280;11538;48.884;8.696;2022-12-04T10:00:59;98408.03;;;3.22;100.00
22743;BME280;11538;48.884;8.696;2022-12-04T10:03:29;98402.69;;;3.22;100.00
22743;BME280;11538;48.884;8.696;2022-12-04T10:06:04;98391.97;;;3.22;100.00
22743;BME280;11538;48.884;8.696;2022-12-04T10:08:36;98392.47;;;3.19;100.00
22743;BME280;11538;48.884;8.696;2022-12-04T10:11:26;98393.28;;;3.20;100.00
22743;BME280;11538;48.884;8.696;2022-12-04T10:14:28;98388.72;;;3.20;100.00
22743;BME280;11538;48.884;8.696;2022-12-04T10:20:24;98387.13;;;3.19;100.00
22743;BME280;11538;48.884;8.696;2022-12-04T10:25:45;98370.78;;;3.21;100.00
22743;BME280;11538;48.884;8.696;2022-12-04T10:30:42;98381.25;;;3.28;100.00
22743;BME280;11538;48.884;8.696;2022-12-04T10:33:33;98372.69;;;3.31;100.00
22743;BME280;11538;48.884;8.696;2022-12-04T10:36:01;98367.09;;;3.32;100.00
22743;BME280;11538;48.884;8.696;2022-12-04T10:41:20;98358.25;;;3.32;100.00
22743;BME280;11538;48.884;8.696;2022-12-04T10:43:50;98362.78;;;3.31;100.00
22743;BME280;11538;48.884;8.696;2022-12-04T10:46:28;98353.69;;;3.32;100.00
22743;BME280;11538;48.884;8.696;2022-12-04T10:48:59;98365.22;;;3.33;100.00
22743;BME280;11538;48.884;8.696;2022-12-04T10:51:29;98358.25;;;3.37;100.00
22743;BME280;11538;48.884;8.696;2022-12-04T10:53:56;98365.50;;;3.42;100.00
22743;BME280;11538;48.884;8.696;2022-12-04T10:56:24;98364.44;;;3.43;100.00
22743;BME280;11538;48.884;8.696;2022-12-04T10:59:00;98367.41;;;3.41;100.00
22743;BME280;11538;48.884;8.696;2022-12-04T11:01:31;98373.81;;;3.40;100.00
22743;BME280;11538;48.884;8.696;2022-12-04T11:04:07;98377.28;;;3.35;100.00
22743;BME280;11538;48.884;8.696;2022-12-04T11:06:34;98374.59;;;3.35;100.00
22743;BME280;11538;48.884;8.696;2022-12-04T11:09:02;98372.44;;;3.32;100.00
22743;BME280;11538;48.884;8.696;2022-12-04T11:11:32;98364.94;;;3.29;100.00
22743;BME280;11538;48.884;8.696;2022-12-04T11:14:17;98378.31;;;3.24;100.00
22743;BME280;11538;48.884;8.696;2022-12-04T11:16:47;98385.31;;;3.30;100.00
22743;BME280;11538;48.884;8.696;2022-12-04T11:19:26;98389.06;;;3.34;100.00
22743;BME280;11538;48.884;8.696;2022-12-04T11:21:55;98396.03;;;3.35;100.00
22743;BME280;11538;48.884;8.696;2022-12-04T11:24:28;98396.03;;;3.35;100.00
22743;BME280;11538;48.884;8.696;2022-12-04T11:26:56;98385.31;;;3.35;100.00
22743;BME280;11538;48.884;8.696;2022-12-04T11:29:32;98387.72;;;3.32;100.00
22743;BME280;11538;48.884;8.696;2022-12-04T11:32:01;98381.31;;;3.33;100.00
22743;BME280;11538;48.884;8.696;2022-12-04T11:34:37;98373.75;;;3.30;100.00
22743;BME280;11538;48.884;8.696;2022-12-04T11:37:18;98378.06;;;3.31;100.00
22743;BME280;11538;48.884;8.696;2022-12-04T11:39:46;98377.78;;;3.27;100.00
22743;BME280;11538;48.884;8.696;2022-12-04T11:42:22;98379.09;;;3.25;100.00
22743;BME280;11538;48.884;8.696;2022-12-04T11:47:25;98390.91;;;3.29;100.00
22743;BME280;11538;48.884;8.696;2022-12-04T11:50:04;98383.94;;;3.28;100.00
22743;BME280;11538;48.884;8.696;2022-12-04T11:52:55;98379.91;;;3.25;100.00
22743;BME280;11538;48.884;8.696;2022-12-04T11:55:31;98376.41;;;3.25;100.00
22743;BME280;11538;48.884;8.696;2022-12-04T12:04:06;98365.72;;;3.30;100.00
22743;BME280;11538;48.884;8.696;2022-12-04T12:07:02;98359.28;;;3.31;100.00
22743;BME280;11538;48.884;8.696;2022-12-04T12:09:43;98349.13;;;3.33;100.00
22743;BME280;11538;48.884;8.696;2022-12-04T12:12:48;98345.38;;;3.34;100.00
22743;BME280;11538;48.884;8.696;2022-12-04T12:15:51;98342.72;;;3.39;100.00
22743;BME280;11538;48.884;8.696;2022-12-04T12:21:22;98353.97;;;3.36;100.00
22743;BME280;11538;48.884;8.696;2022-12-04T12:24:03;98346.19;;;3.34;100.00
22743;BME280;11538;48.884;8.696;2022-12-04T12:26:53;98354.25;;;3.40;100.00
22743;BME280;11538;48.884;8.696;2022-12-04T12:35:38;98358.53;;;3.41;100.00
22743;BME280;11538;48.884;8.696;2022-12-04T12:38:20;98346.72;;;3.31;100.00
22743;BME280;11538;48.884;8.696;2022-12-04T12:41:11;98348.03;;;3.29;100.00
22743;BME280;11538;48.884;8.696;2022-12-04T12:43:40;98343.47;;;3.29;100.00
22743;BME280;11538;48.884;8.696;2022-12-04T12:46:32;98337.59;;;3.32;100.00
22743;BME280;11538;48.884;8.696;2022-12-04T12:49:05;98335.72;;;3.33;100.00
22743;BME280;11538;48.884;8.696;2022-12-04T12:51:44;98342.41;;;3.25;100.00
22743;BME280;11538;48.884;8.696;2022-12-04T12:54:30;98334.59;;;3.24;100.00
22743;BME280;11538;48.884;8.696;2022-12-04T12:57:19;98334.91;;;3.27;100.00
22743;BME280;11538;48.884;8.696;2022-12-04T12:59:53;98342.16;;;3.32;100.00
22743;BME280;11538;48.884;8.696;2022-12-04T13:04:56;98326.88;;;3.32;100.00
22743;BME280;11538;48.884;8.696;2022-12-04T13:10:24;98315.63;;;3.35;100.00
22743;BME280;11538;48.884;8.696;2022-12-04T13:12:57;98318.06;;;3.37;100.00
22743;BME280;11538;48.884;8.696;2022-12-04T13:16:18;98326.34;;;3.35;100.00
22743;BME280;11538;48.884;8.696;2022-12-04T13:18:28;98331.47;;;3.37;100.00
22743;BME280;11538;48.884;8.696;2022-12-04T13:21:00;98320.47;;;3.39;100.00
22743;BME280;11538;48.884;8.696;2022-12-04T13:26:45;98322.63;;;3.47;100.00
22743;BME280;11538;48.884;8.696;2022-12-04T13:29:34;98322.91;;;3.45;100.00
22743;BME280;11538;48.884;8.696;2022-12-04T13:35:18;98320.22;;;3.45;100.00
22743;BME280;11538;48.884;8.696;2022-12-04T13:43:26;98325.28;;;3.42;100.00
22743;BME280;11538;48.884;8.696;2022-12-04T13:45:53;98334.94;;;3.43;100.00
22743;BME280;11538;48.884;8.696;2022-12-04T13:53:40;98348.91;;;3.50;100.00
22743;BME280;11538;48.884;8.696;2022-12-04T13:56:24;98345.44;;;3.49;100.00
22743;BME280;11538;48.884;8.696;2022-12-04T13:58:59;98343.00;;;3.43;100.00
22743;BME280;11538;48.884;8.696;2022-12-04T14:01:36;98335.22;;;3.41;100.00
22743;BME280;11538;48.884;8.696;2022-12-04T14:04:05;98332.00;;;3.44;100.00
22743;BME280;11538;48.884;8.696;2022-12-04T14:06:41;98330.41;;;3.48;100.00
22743;BME280;11538;48.884;8.696;2022-12-04T14:09:21;98332.78;;;3.40;100.00
22743;BME280;11538;48.884;8.696;2022-12-04T14:11:55;98336.28;;;3.40;100.00
22743;BME280;11538;48.884;8.696;2022-12-04T14:14:26;98331.19;;;3.44;100.00
22743;BME280;11538;48.884;8.696;2022-12-04T14:16:56;98330.94;;;3.45;100.00
22743;BME280;11538;48.884;8.696;2022-12-04T14:19:28;98340.31;;;3.43;100.00
22743;BME280;11538;48.884;8.696;2022-12-04T14:21:57;98345.41;;;3.39;100.00
22743;BME280;11538;48.884;8.696;2022-12-04T14:27:03;98340.28;;;3.38;100.00
22743;BME280;11538;48.884;8.696;2022-12-04T14:29:52;98332.78;;;3.40;100.00
22743;BME280;11538;48.884;8.696;2022-12-04T14:32:32;98334.41;;;3.41;100.00
22743;BME280;11538;48.884;8.696;2022-12-04T14:35:00;98327.19;;;3.41;100.00
22743;BME280;11538;48.884;8.696;2022-12-04T14:37:33;98324.75;;;3.40;100.00
22743;BME280;11538;48.884;8.696;2022-12-04T14:40:03;98319.66;;;3.38;100.00
22743;BME280;11538;48.884;8.696;2022-12-04T14:42:35;98327.41;;;3.34;100.00
22743;BME280;11538;48.884;8.696;2022-12-04T14:45:15;98325.28;;;3.42;100.00
22743;BME280;11538;48.884;8.696;2022-12-04T14:50:39;98319.69;;;3.48;100.00